Time;durP1;ratioP1;P1;durP2;ratioP2;P2;SDS_P1;SDS_P2;PMS_P1;PMS_P2;Temp;Humidity;BMP_temperature;BMP_pressure;BME280_temperature;BME280_humidity;BME280_pressure;Samples;Min_cycle;Max_cycle;Signal;HPM_P1;HPM_P2
2023/07/28 00:02:00;;;;;;;;;2.00;1.00;;;;;21.26;100.00;100617.84;5016001;28;45536;-83
2023/07/28 00:04:25;;;;;;;;;2.00;2.00;;;;;21.25;100.00;100622.28;5032923;28;46096;-83
2023/07/28 00:06:51;;;;;;;;;4.00;1.33;;;;;21.25;100.00;100627.66;5016653;28;62859;-83
2023/07/28 00:09:16;;;;;;;;;1.00;1.00;;;;;21.24;100.00;100623.22;5029705;28;45378;-84
2023/07/28 00:11:41;;;;;;;;;1.67;1.67;;;;;21.25;100.00;100624.09;5035110;28;56079;-83
2023/07/28 00:14:07;;;;;;;;;2.00;2.00;;;;;21.25;100.00;100632.16;5037913;28;63590;-83
2023/07/28 00:16:32;;;;;;;;;1.00;1.00;;;;;21.26;100.00;100639.31;5033332;28;45375;-83
2023/07/28 00:18:57;;;;;;;;;3.00;2.00;;;;;21.26;100.00;100623.19;5020576;28;58331;-83
2023/07/28 00:21:23;;;;;;;;;2.33;2.33;;;;;21.25;100.00;100619.63;5029260;28;57847;-83
2023/07/28 00:23:48;;;;;;;;;5.00;4.00;;;;;21.23;100.00;100607.19;5028962;28;62695;-83
2023/07/28 00:26:13;;;;;;;;;3.00;3.00;;;;;21.23;100.00;100616.13;5022194;28;45512;-83
2023/07/28 00:28:39;;;;;;;;;5.00;4.00;;;;;21.25;100.00;100618.75;5023676;28;45766;-83
2023/07/28 00:31:04;;;;;;;;;7.67;6.00;;;;;21.21;100.00;100601.88;5022457;28;45642;-83
2023/07/28 00:33:29;;;;;;;;;2.67;2.67;;;;;21.22;100.00;100611.69;5029802;28;59391;-83
2023/07/28 00:35:55;;;;;;;;;3.00;3.00;;;;;21.18;100.00;100613.59;5021745;28;65073;-83
2023/07/28 00:38:20;;;;;;;;;5.00;3.67;;;;;21.16;100.00;100618.16;5026129;28;49585;-83
2023/07/28 00:40:46;;;;;;;;;2.00;2.00;;;;;21.14;100.00;100614.63;5029010;28;56807;-83
2023/07/28 00:43:11;;;;;;;;;1.67;1.00;;;;;21.17;100.00;100619.03;5035489;28;50542;-83
2023/07/28 00:45:36;;;;;;;;;4.33;2.00;;;;;21.17;100.00;100616.34;5023836;28;65161;-83
2023/07/28 00:48:02;;;;;;;;;1.00;1.00;;;;;21.18;100.00;100616.28;5028585;28;48347;-83
2023/07/28 00:50:28;;;;;;;;;1.00;1.00;;;;;21.18;100.00;100616.28;5027739;28;45495;-83
2023/07/28 00:52:55;;;;;;;;;0.00;0.00;;;;;21.17;100.00;100619.03;5021779;28;70395;-83
2023/07/28 00:55:20;;;;;;;;;2.67;1.00;;;;;21.21;100.00;100625.19;5015600;28;45305;-82
2023/07/28 00:57:46;;;;;;;;;0.67;0.00;;;;;21.18;100.00;100612.72;5016591;28;57234;-85
2023/07/28 01:00:11;;;;;;;;;0.67;0.67;;;;;21.21;100.00;100619.81;5004445;28;61323;-83
2023/07/28 01:02:37;;;;;;;;;0.00;0.00;;;;;21.21;100.00;100619.81;5024308;28;47581;-83
2023/07/28 01:05:03;;;;;;;;;1.00;1.00;;;;;21.18;100.00;100615.41;5028943;28;45333;-83
2023/07/28 01:07:34;;;;;;;;;0.33;0.33;;;;;21.21;100.00;100623.38;5017800;28;45591;-84
2023/07/28 01:10:09;;;;;;;;;3.00;1.00;;;;;21.19;100.00;100623.41;5015813;28;45345;-83
2023/07/28 01:12:35;;;;;;;;;1.00;1.00;;;;;21.19;100.00;100619.84;5027442;28;46712;-83
2023/07/28 01:15:00;;;;;;;;;0.67;0.67;;;;;21.21;100.00;100617.13;5034720;28;67953;-83
2023/07/28 01:17:26;;;;;;;;;1.00;1.00;;;;;21.21;100.00;100625.19;5016134;28;45725;-83
2023/07/28 01:19:52;;;;;;;;;2.00;1.00;;;;;21.18;100.00;100620.78;5016920;28;45485;-83
2023/07/28 01:22:32;;;;;;;;;0.00;0.00;;;;;21.18;100.00;100616.28;5009859;28;71284;-84
2023/07/28 01:25:14;;;;;;;;;0.67;0.00;;;;;21.20;100.00;100624.31;5024873;28;45205;-85
2023/07/28 01:27:42;;;;;;;;;2.00;1.00;;;;;21.19;100.00;100617.16;5020987;28;45514;-83
2023/07/28 01:30:08;;;;;;;;;1.33;0.33;;;;;21.21;100.00;100620.69;5014449;28;45551;-83
2023/07/28 01:32:33;;;;;;;;;1.00;1.00;;;;;21.20;100.00;100616.25;5007922;28;47372;-84
2023/07/28 01:34:59;;;;;;;;;1.33;0.33;;;;;21.20;100.00;100624.31;5014309;28;63565;-83
2023/07/28 01:37:24;;;;;;;;;1.00;1.00;;;;;21.19;100.00;100617.16;5018247;28;45241;-83
2023/07/28 01:39:49;;;;;;;;;1.00;1.00;;;;;21.17;100.00;100610.97;5019345;28;64108;-83
2023/07/28 01:42:14;;;;;;;;;2.00;1.00;;;;;21.19;100.00;100607.28;5031680;28;71796;-83
2023/07/28 01:44:40;;;;;;;;;2.00;0.33;;;;;21.19;100.00;100607.28;5020009;28;66680;-83
2023/07/28 01:47:05;;;;;;;;;1.00;1.00;;;;;21.16;100.00;100614.59;5031967;28;66484;-83
2023/07/28 01:49:30;;;;;;;;;1.00;1.00;;;;;21.18;100.00;100616.28;5029592;28;61080;-82
2023/07/28 01:51:56;;;;;;;;;0.00;0.00;;;;;21.15;100.00;100607.47;5021052;28;67696;-83
2023/07/28 01:54:21;;;;;;;;;1.00;1.00;;;;;21.13;100.00;100603.97;5016312;28;66622;-83
2023/07/28 01:56:46;;;;;;;;;3.67;1.67;;;;;21.14;100.00;100603.03;5021261;28;59221;-83
2023/07/28 01:59:13;;;;;;;;;1.00;1.00;;;;;21.15;100.00;100602.13;5021735;28;50539;-82
2023/07/28 02:01:38;;;;;;;;;1.00;1.00;;;;;21.14;100.00;100600.34;5034125;28;46920;-83
2023/07/28 02:04:03;;;;;;;;;1.00;1.00;;;;;21.16;100.00;100611.91;5018806;28;45413;-83
2023/07/28 02:06:29;;;;;;;;;4.00;2.00;;;;;21.17;100.00;100610.97;5034094;28;58768;-84
2023/07/28 02:08:54;;;;;;;;;1.00;1.00;;;;;21.18;100.00;100615.41;5027704;28;45507;-84
2023/07/28 02:11:20;;;;;;;;;1.00;1.00;;;;;21.18;100.00;100610.91;5030751;28;47486;-83
2023/07/28 02:13:45;;;;;;;;;1.00;1.00;;;;;21.19;100.00;100611.78;5025691;28;64460;-82
2023/07/28 02:16:10;;;;;;;;;1.00;1.00;;;;;21.15;100.00;100611.03;5019956;28;61696;-83
2023/07/28 02:18:35;;;;;;;;;1.00;1.00;;;;;21.18;100.00;100610.91;5031111;28;57479;-83
2023/07/28 02:21:01;;;;;;;;;3.00;1.00;;;;;21.17;100.00;100597.56;5022424;28;46244;-85
2023/07/28 02:23:26;;;;;;;;;0.67;0.67;;;;;21.17;100.00;100597.56;5030232;28;63968;-83
2023/07/28 02:25:51;;;;;;;;;1.00;1.00;;;;;21.17;100.00;100590.38;5029934;28;61750;-83
2023/07/28 02:28:17;;;;;;;;;1.00;1.00;;;;;21.19;100.00;100596.53;5032178;28;45293;-83
2023/07/28 02:30:42;;;;;;;;;0.00;0.00;;;;;21.18;100.00;100596.63;5025212;28;70183;-83
2023/07/28 02:33:07;;;;;;;;;0.00;0.00;;;;;21.18;100.00;100594.81;5035806;28;45247;-82
2023/07/28 02:35:33;;;;;;;;;1.00;1.00;;;;;21.19;100.00;100596.53;5024380;28;45351;-83
2023/07/28 02:37:58;;;;;;;;;0.00;0.00;;;;;21.21;100.00;100599.19;5038966;28;45269;-84
2023/07/28 02:40:24;;;;;;;;;1.00;1.00;;;;;21.22;100.00;100592.88;5036115;28;66822;-84
2023/07/28 02:42:49;;;;;;;;;0.00;0.00;;;;;21.23;100.00;100593.75;5027711;28;62314;-85
2023/07/28 02:45:14;;;;;;;;;1.00;1.00;;;;;21.27;100.00;100600.78;5034067;28;45442;-83
2023/07/28 02:47:40;;;;;;;;;0.33;0.33;;;;;21.25;100.00;100595.44;5036542;28;45139;-83
2023/07/28 02:50:05;;;;;;;;;2.00;1.00;;;;;21.28;100.00;100595.34;5037428;28;46576;-83
2023/07/28 02:52:31;;;;;;;;;0.00;0.00;;;;;21.27;100.00;100593.59;5033313;28;45233;-83
2023/07/28 02:54:56;;;;;;;;;0.00;0.00;;;;;21.26;100.00;100588.28;5025510;28;54170;-82
2023/07/28 02:57:21;;;;;;;;;1.00;1.00;;;;;21.30;100.00;100592.63;5018208;28;50496;-85
2023/07/28 02:59:47;;;;;;;;;0.00;0.00;;;;;21.28;100.00;100594.47;5018647;28;49841;-83
2023/07/28 03:02:12;;;;;;;;;1.33;1.00;;;;;21.29;100.00;100598.91;5030707;28;65165;-83
2023/07/28 03:04:37;;;;;;;;;0.00;0.00;;;;;21.27;100.00;100596.28;5031622;28;45984;-83
2023/07/28 03:07:03;;;;;;;;;0.00;0.00;;;;;21.26;100.00;100591.84;5026566;28;57777;-83
2023/07/28 03:09:28;;;;;;;;;1.00;1.00;;;;;21.26;100.00;100591.84;5020980;28;62452;-82
2023/07/28 03:11:53;;;;;;;;;1.67;1.00;;;;;21.27;100.00;100598.09;5037259;28;57886;-83
2023/07/28 03:14:19;;;;;;;;;0.00;0.00;;;;;21.25;100.00;100594.56;5030865;28;45497;-84
2023/07/28 03:16:44;;;;;;;;;0.33;0.33;;;;;21.26;100.00;100594.53;5023908;28;58736;-85
2023/07/28 03:19:09;;;;;;;;;1.00;1.00;;;;;21.26;100.00;100599.91;5043476;28;73070;-84
2023/07/28 03:21:34;;;;;;;;;1.00;1.00;;;;;21.25;100.00;100608.88;5025511;28;45349;-83
2023/07/28 03:24:00;;;;;;;;;1.00;1.00;;;;;21.25;100.00;100606.19;5022781;28;62982;-82
2023/07/28 03:26:25;;;;;;;;;0.00;0.00;;;;;21.25;100.00;100599.94;5018168;28;60400;-85
2023/07/28 03:28:50;;;;;;;;;0.67;0.67;;;;;21.25;100.00;100606.19;5029821;28;65590;-83
2023/07/28 03:31:16;;;;;;;;;1.33;1.00;;;;;21.25;100.00;100598.13;5022006;28;49598;-83
2023/07/28 03:33:41;;;;;;;;;2.00;1.00;;;;;21.24;100.00;100592.81;5021863;28;59353;-84
2023/07/28 03:36:06;;;;;;;;;1.00;1.00;;;;;21.25;100.00;100597.25;5033998;28;61536;-82
2023/07/28 03:38:32;;;;;;;;;0.67;0.00;;;;;21.24;100.00;100599.06;5024860;28;64609;-83
2023/07/28 03:40:57;;;;;;;;;0.00;0.00;;;;;21.21;100.00;100590.28;5027279;28;65839;-83
2023/07/28 03:43:22;;;;;;;;;0.33;0.00;;;;;21.23;100.00;100597.31;5023840;28;58631;-83
2023/07/28 03:45:48;;;;;;;;;0.00;0.00;;;;;21.23;100.00;100600.00;5020011;28;63165;-84
2023/07/28 03:48:13;;;;;;;;;0.00;0.00;;;;;21.24;100.00;100600.88;5019803;28;46204;-83
2023/07/28 03:50:39;;;;;;;;;0.00;0.00;;;;;21.24;100.00;100590.13;5024927;28;45450;-83
2023/07/28 03:53:04;;;;;;;;;2.00;0.00;;;;;21.22;100.00;100584.84;5020495;28;62043;-83
2023/07/28 03:55:29;;;;;;;;;0.33;0.33;;;;;21.24;100.00;100591.00;5027755;28;61413;-83
2023/07/28 03:57:55;;;;;;;;;0.00;0.00;;;;;21.23;100.00;100581.22;5036688;28;46717;-83
2023/07/28 04:00:20;;;;;;;;;0.00;0.00;;;;;21.24;100.00;100588.31;5010622;28;67006;-84
2023/07/28 04:02:46;;;;;;;;;0.00;0.00;;;;;21.27;100.00;100584.66;5021932;28;45471;-83
2023/07/28 04:05:11;;;;;;;;;0.00;0.00;;;;;21.27;100.00;100588.22;5018513;28;45451;-82
2023/07/28 04:07:36;;;;;;;;;0.00;0.00;;;;;21.28;100.00;100583.72;5020656;28;69983;-82
2023/07/28 04:10:02;;;;;;;;;1.00;0.00;;;;;21.28;100.00;100589.97;5028807;28;63535;-82
2023/07/28 04:12:27;;;;;;;;;0.00;0.00;;;;;21.28;100.00;100594.47;5034660;28;45344;-82
2023/07/28 04:14:53;;;;;;;;;0.00;0.00;;;;;21.28;100.00;100591.78;5032260;28;45518;-82
2023/07/28 04:17:18;;;;;;;;;0.00;0.00;;;;;21.27;100.00;100588.22;5035096;28;69619;-83
2023/07/28 04:19:43;;;;;;;;;1.00;0.00;;;;;21.29;100.00;100605.16;5023960;28;66980;-82
2023/07/28 04:22:08;;;;;;;;;0.00;0.00;;;;;21.29;100.00;100597.09;5029004;28;60070;-82
2023/07/28 04:24:34;;;;;;;;;0.00;0.00;;;;;21.29;100.00;100590.84;5034903;28;58551;-83
2023/07/28 04:26:59;;;;;;;;;0.00;0.00;;;;;21.29;100.00;100601.59;5022951;28;46437;-83
2023/07/28 04:29:26;;;;;;;;;0.00;0.00;;;;;21.28;100.00;100595.34;5020686;28;67593;-83
2023/07/28 04:31:52;;;;;;;;;0.00;0.00;;;;;21.28;100.00;100592.66;5019450;28;45222;-82
2023/07/28 04:34:17;;;;;;;;;0.00;0.00;;;;;21.29;100.00;100593.53;5016668;28;45167;-84
2023/07/28 04:36:42;;;;;;;;;0.00;0.00;;;;;21.30;100.00;100598.00;5014504;28;70305;-82
2023/07/28 04:39:08;;;;;;;;;0.00;0.00;;;;;21.30;100.00;100593.50;5021330;28;67198;-85
2023/07/28 04:41:33;;;;;;;;;0.00;0.00;;;;;21.30;100.00;100598.88;5023041;28;61593;-83
2023/07/28 04:43:59;;;;;;;;;0.00;0.00;;;;;21.29;100.00;100601.59;5030192;28;58454;-83
2023/07/28 04:46:24;;;;;;;;;0.00;0.00;;;;;21.28;100.00;100594.47;5034897;28;46861;-82
2023/07/28 04:48:49;;;;;;;;;0.00;0.00;;;;;21.28;100.00;100598.03;5017905;28;69301;-82
2023/07/28 04:51:15;;;;;;;;;0.00;0.00;;;;;21.28;100.00;100602.53;5025289;28;57708;-84
2023/07/28 04:53:40;;;;;;;;;0.00;0.00;;;;;21.27;100.00;100596.28;5015609;28;61044;-82
2023/07/28 04:56:05;;;;;;;;;0.00;0.00;;;;;21.27;100.00;100606.16;5027890;28;50632;-85
2023/07/28 04:58:31;;;;;;;;;0.00;0.00;;;;;21.26;100.00;100601.72;5016181;28;46429;-84
2023/07/28 05:00:56;;;;;;;;;0.00;0.00;;;;;21.29;100.00;100606.97;5028606;28;61899;-82
2023/07/28 05:03:21;;;;;;;;;0.00;0.00;;;;;21.29;100.00;100610.53;5020250;28;45537;-82
2023/07/28 05:05:47;;;;;;;;;0.00;0.00;;;;;21.28;100.00;100600.72;5026979;28;68167;-84
2023/07/28 05:08:12;;;;;;;;;0.00;0.00;;;;;21.32;100.00;100604.22;5034586;28;45506;-84
2023/07/28 05:10:37;;;;;;;;;0.00;0.00;;;;;21.29;100.00;100607.84;5025198;28;45400;-83
2023/07/28 05:13:06;;;;;;;;;1.00;0.00;;;;;21.30;100.00;100616.78;5023186;28;58931;-82
2023/07/28 05:15:31;;;;;;;;;0.00;0.00;;;;;21.28;100.00;100606.09;5038819;28;45473;-82
2023/07/28 05:20:28;;;;;;;;;0.00;0.00;;;;;21.29;100.00;100612.34;5022143;28;45444;-83
2023/07/28 05:22:53;;;;;;;;;0.00;0.00;;;;;21.29;100.00;100602.47;5019706;28;45477;-83
2023/07/28 05:25:19;;;;;;;;;0.00;0.00;;;;;21.29;100.00;100601.59;5018996;28;47332;-83
2023/07/28 05:27:44;;;;;;;;;0.00;0.00;;;;;21.31;100.00;100611.38;5018899;28;49488;-82
2023/07/28 05:30:09;;;;;;;;;0.00;0.00;;;;;21.33;100.00;100605.97;5000919;28;64836;-82
2023/07/28 05:32:35;;;;;;;;;0.00;0.00;;;;;21.32;100.00;100602.41;5015836;28;45718;-82
2023/07/28 05:35:00;;;;;;;;;0.33;0.00;;;;;21.32;100.00;100607.75;5026574;28;68903;-82
2023/07/28 05:37:25;;;;;;;;;0.67;0.00;;;;;21.33;100.00;100608.63;5017938;28;63038;-83
2023/07/28 05:39:51;;;;;;;;;0.00;0.00;;;;;21.31;100.00;100605.16;5018610;28;62509;-82
2023/07/28 05:42:16;;;;;;;;;0.00;0.00;;;;;21.31;100.00;100608.72;5018483;28;50660;-82
2023/07/28 05:44:42;;;;;;;;;0.00;0.00;;;;;21.31;100.00;100611.38;5018802;28;46386;-83
2023/07/28 05:47:07;;;;;;;;;0.00;0.00;;;;;21.30;100.00;100614.97;5033634;28;61105;-83
2023/07/28 05:49:32;;;;;;;;;0.00;0.00;;;;;21.32;100.00;100607.75;5018838;28;45638;-83
2023/07/28 05:51:58;;;;;;;;;0.00;0.00;;;;;21.33;100.00;100605.97;5018394;28;45491;-83
2023/07/28 05:54:23;;;;;;;;;0.00;0.00;;;;;21.35;100.00;100610.31;5002269;28;67905;-84
2023/07/28 05:56:49;;;;;;;;;0.00;0.00;;;;;21.36;100.00;100604.03;4965537;28;60444;-83
2023/07/28 05:59:15;;;;;;;;;0.00;0.00;;;;;21.39;100.00;100606.59;5019120;28;45382;-82
2023/07/28 06:01:40;;;;;;;;;0.00;0.00;;;;;21.42;100.00;100606.50;5016736;28;45286;-82
2023/07/28 06:04:05;;;;;;;;;0.00;0.00;;;;;21.44;100.00;100607.31;5014378;28;67248;-83
2023/07/28 06:06:31;;;;;;;;;0.00;0.00;;;;;21.49;100.00;100615.19;5000509;28;45469;-83
2023/07/28 06:08:56;;;;;;;;;0.00;0.00;;;;;21.50;100.00;100618.75;4984483;28;58730;-86
2023/07/28 06:11:21;;;;;;;;;0.00;0.00;;;;;21.50;100.00;100610.69;5018801;28;45275;-85
2023/07/28 06:13:47;;;;;;;;;0.33;0.00;;;;;21.53;100.00;100621.34;5032819;28;69495;-83
2023/07/28 06:16:14;;;;;;;;;0.00;0.00;;;;;21.55;100.00;100622.16;5018078;28;45452;-84
2023/07/28 06:18:39;;;;;;;;;0.00;0.00;;;;;21.54;100.00;100613.22;5010369;28;45270;-82
2023/07/28 06:21:05;;;;;;;;;1.00;0.00;;;;;21.56;100.00;100615.81;5012102;28;62654;-83
2023/07/28 06:23:30;;;;;;;;;0.00;0.00;;;;;21.59;100.00;100621.09;5011195;28;47262;-83
2023/07/28 06:25:56;;;;;;;;;0.00;0.00;;;;;21.59;100.00;100627.34;5017771;28;65486;-82
2023/07/28 06:28:21;;;;;;;;;1.00;0.00;;;;;21.62;100.00;100634.41;5018841;28;45525;-82
2023/07/28 06:30:46;;;;;;;;;0.00;0.00;;;;;21.61;100.00;100624.59;5017470;28;60632;-84
2023/07/28 06:33:12;;;;;;;;;0.00;0.00;;;;;21.61;100.00;100620.09;4992045;28;62553;-82
2023/07/28 06:35:37;;;;;;;;;1.00;0.00;;;;;21.64;100.00;100628.06;4998400;28;46570;-83
2023/07/28 06:38:03;;;;;;;;;0.00;0.00;;;;;21.64;100.00;100625.38;5018848;28;45501;-84
2023/07/28 06:40:28;;;;;;;;;0.00;0.00;;;;;21.65;100.00;100627.09;5019016;28;45431;-82
2023/07/28 06:42:53;;;;;;;;;0.00;0.00;;;;;21.65;100.00;100632.50;5016150;28;54213;-83
2023/07/28 06:45:19;;;;;;;;;1.00;0.00;;;;;21.65;100.00;100632.50;5017578;28;66622;-83
2023/07/28 06:47:45;;;;;;;;;0.00;0.00;;;;;21.71;100.00;100634.06;5000477;28;45614;-83
2023/07/28 06:50:11;;;;;;;;;0.00;0.00;;;;;21.73;100.00;100642.06;5033069;28;58365;-83
2023/07/28 06:52:36;;;;;;;;;0.00;0.00;;;;;21.76;100.00;100637.44;5017539;28;45900;-83
2023/07/28 06:55:02;;;;;;;;;0.00;0.00;;;;;21.81;100.00;100643.53;5016208;28;59723;-83
2023/07/28 06:57:28;;;;;;;;;0.00;0.00;;;;;21.82;100.00;100642.59;5018342;28;45480;-83
2023/07/28 06:59:53;;;;;;;;;1.33;0.00;;;;;21.85;100.00;100639.78;4999113;28;59759;-83
2023/07/28 07:02:18;;;;;;;;;0.00;0.00;;;;;21.89;100.00;100649.50;5016028;28;66113;-82
2023/07/28 07:04:43;;;;;;;;;0.00;0.00;;;;;21.90;100.00;100645.00;5014248;28;60750;-83
2023/07/28 07:07:09;;;;;;;;;0.00;0.00;;;;;21.94;100.00;100652.88;5018016;28;45503;-83
2023/07/28 07:09:34;;;;;;;;;0.00;0.00;;;;;21.94;100.00;100644.81;5032748;28;45407;-83
2023/07/28 07:12:00;;;;;;;;;0.00;0.00;;;;;21.92;100.00;100649.38;5008076;28;46913;-85
2023/07/28 07:14:25;;;;;;;;;0.00;0.00;;;;;21.91;100.00;100658.38;5017323;28;45276;-84
2023/07/28 07:16:51;;;;;;;;;0.00;0.00;;;;;21.93;100.00;100659.16;5014086;28;54899;-82
2023/07/28 07:19:16;;;;;;;;;0.00;0.00;;;;;21.94;100.00;100662.75;5017595;28;45179;-84
2023/07/28 07:21:41;;;;;;;;;1.00;0.00;;;;;21.92;100.00;100678.06;5016043;28;69608;-85
2023/07/28 07:24:07;;;;;;;;;2.00;0.67;;;;;21.89;100.00;100668.31;4999292;28;45321;-83
2023/07/28 07:26:32;;;;;;;;;0.00;0.00;;;;;21.88;100.00;100682.66;5000193;28;45222;-83
2023/07/28 07:28:58;;;;;;;;;1.00;1.00;;;;;21.84;100.00;100681.06;5003105;28;59279;-83
2023/07/28 07:31:23;;;;;;;;;1.00;1.00;;;;;21.82;100.00;100682.91;4991799;28;47663;-84
2023/07/28 07:33:49;;;;;;;;;1.00;1.00;;;;;21.78;100.00;100678.56;5003171;28;61981;-84
2023/07/28 07:36:16;;;;;;;;;1.33;1.33;;;;;21.76;100.00;100691.22;4993392;28;45492;-83
2023/07/28 07:38:41;;;;;;;;;1.00;1.00;;;;;21.74;100.00;100690.41;5006903;28;45306;-83
2023/07/28 07:41:08;;;;;;;;;1.33;1.33;;;;;21.78;100.00;100694.69;4999241;28;45686;-84
2023/07/28 07:43:34;;;;;;;;;1.00;1.00;;;;;21.77;100.00;100687.56;4981147;28;46660;-84
2023/07/28 07:45:59;;;;;;;;;1.67;0.00;;;;;21.81;100.00;100693.72;4998616;28;61180;-85
2023/07/28 07:48:24;;;;;;;;;1.00;1.00;;;;;21.83;100.00;100690.03;5017481;28;45694;-86
2023/07/28 07:50:51;;;;;;;;;3.00;1.00;;;;;21.89;100.00;100694.28;4997938;28;46929;-84
2023/07/28 07:53:16;;;;;;;;;1.00;1.00;;;;;21.94;100.00;100698.59;5016621;28;46177;-84
2023/07/28 07:55:41;;;;;;;;;1.33;1.33;;;;;21.99;100.00;100695.69;4983186;28;45518;-84
2023/07/28 07:58:07;;;;;;;;;2.00;2.00;;;;;22.04;100.00;100692.84;4982180;28;53791;-86
2023/07/28 08:00:32;;;;;;;;;2.33;2.33;;;;;22.10;100.00;100703.34;5016365;28;64139;-84
2023/07/28 08:02:58;;;;;;;;;5.33;2.00;;;;;22.12;100.00;100696.16;5012981;28;45412;-85
2023/07/28 08:05:23;;;;;;;;;1.67;1.67;;;;;22.16;100.00;100695.09;4982237;28;63615;-83
2023/07/28 08:07:50;;;;;;;;;2.00;2.00;;;;;22.17;100.00;100689.66;5016922;28;45409;-84
2023/07/28 08:10:16;;;;;;;;;4.33;4.33;;;;;22.19;100.00;100697.66;5016996;28;46516;-86
2023/07/28 08:12:41;;;;;;;;;4.67;3.67;;;;;22.22;100.00;100690.34;5030911;28;45431;-83
2023/07/28 08:15:07;;;;;;;;;2.67;2.67;;;;;22.28;100.00;100686.53;5016307;28;45474;-83
2023/07/28 08:17:32;;;;;;;;;4.00;2.33;;;;;22.38;100.00;100697.81;4999385;28;47162;-84
2023/07/28 08:19:58;;;;;;;;;3.00;3.00;;;;;22.43;100.00;100696.69;5016156;28;45440;-83
2023/07/28 08:22:23;;;;;;;;;1.00;1.00;;;;;22.47;100.00;100698.31;5016514;28;45346;-85
2023/07/28 08:24:48;;;;;;;;;1.00;1.00;;;;;22.48;100.00;100700.09;4998655;28;47755;-83
2023/07/28 08:27:14;;;;;;;;;0.00;0.00;;;;;22.55;100.00;100705.22;4997220;28;45382;-83
2023/07/28 08:29:39;;;;;;;;;0.67;0.00;;;;;22.56;100.00;100691.69;5015765;28;68473;-86
2023/07/28 08:32:04;;;;;;;;;0.00;0.00;;;;;22.61;100.00;100700.44;5015823;28;60117;-84
2023/07/28 08:34:30;;;;;;;;;0.33;0.33;;;;;22.63;100.00;100689.59;5016581;28;45442;-86
2023/07/28 08:36:55;;;;;;;;;0.00;0.00;;;;;22.70;100.00;100686.63;5016844;28;45179;-85
2023/07/28 08:39:20;;;;;;;;;0.00;0.00;;;;;22.78;100.00;100690.78;4998515;28;47683;-85
2023/07/28 08:41:46;;;;;;;;;0.00;0.00;;;;;22.87;100.00;100696.69;4998423;28;46114;-83
2023/07/28 08:44:11;;;;;;;;;0.00;0.00;;;;;22.95;100.00;100699.06;4997415;28;57478;-84
2023/07/28 08:46:37;;;;;;;;;0.00;0.00;;;;;23.06;100.00;100699.47;5032428;28;45402;-84
2023/07/28 08:49:02;;;;;;;;;0.00;0.00;;;;;23.14;100.00;100701.88;4982144;28;47755;-83
2023/07/28 08:51:28;;;;;;;;;0.00;0.00;;;;;23.21;100.00;100703.34;4985246;28;45520;-84
2023/07/28 08:53:53;;;;;;;;;0.00;0.00;;;;;23.25;100.00;100702.28;5016508;28;45211;-86
2023/07/28 08:56:18;;;;;;;;;0.00;0.00;;;;;23.32;100.00;100705.56;4998692;28;45309;-83
2023/07/28 08:58:44;;;;;;;;;1.00;0.00;;;;;23.33;100.00;100689.34;4998296;28;46636;-84
2023/07/28 09:01:10;;;;;;;;;1.00;0.00;;;;;23.40;100.00;100704.28;4998198;28;45314;-84
2023/07/28 09:03:41;;;;;;;;;0.00;0.00;;;;;23.40;100.00;100711.50;5012865;28;45560;-86
2023/07/28 09:06:08;;;;;;;;;0.00;0.00;;;;;23.38;100.00;100698.09;4998501;28;45467;-84
2023/07/28 09:08:35;;;;;;;;;1.00;0.00;;;;;23.37;100.00;100708.94;4998681;28;48894;-84
2023/07/28 09:11:05;;;;;;;;;0.00;0.00;;;;;23.30;100.00;100697.56;4998154;28;45351;-83
2023/07/28 09:13:41;;;;;;;;;0.00;0.00;;;;;23.27;100.00;100700.38;5009991;28;45251;-86
2023/07/28 09:16:16;;;;;;;;;0.00;0.00;;;;;23.28;100.00;100712.94;4998224;28;45595;-84
2023/07/28 09:18:41;;;;;;;;;0.00;0.00;;;;;23.25;100.00;100705.84;4997920;28;46881;-84
2023/07/28 09:21:16;;;;;;;;;0.00;0.00;;;;;23.25;100.00;100713.06;5008498;28;45468;-85
2023/07/28 09:23:41;;;;;;;;;1.00;1.00;;;;;23.23;100.00;100721.22;4997801;28;45344;-83
2023/07/28 09:26:07;;;;;;;;;0.67;0.67;;;;;23.21;100.00;100714.13;5030586;28;63846;-86
2023/07/28 09:28:38;;;;;;;;;0.00;0.00;;;;;23.19;100.00;100711.50;5031254;28;47343;-84
2023/07/28 09:31:05;;;;;;;;;0.00;0.00;;;;;23.17;100.00;100710.69;5007869;28;45443;-84
2023/07/28 09:33:32;;;;;;;;;1.00;0.00;;;;;23.17;100.00;100718.78;5014235;28;45305;-83
2023/07/28 09:36:08;;;;;;;;;0.00;0.00;;;;;23.13;100.00;100709.06;4981090;28;45507;-83
2023/07/28 09:38:36;;;;;;;;;0.00;0.00;;;;;23.14;100.00;100707.25;4998234;28;45728;-84
2023/07/28 09:41:06;;;;;;;;;1.33;0.00;;;;;23.24;100.00;100703.22;5015244;28;45365;-84
2023/07/28 09:43:31;;;;;;;;;0.00;0.00;;;;;23.38;100.00;100713.38;4981400;28;45461;-85
2023/07/28 09:45:57;;;;;;;;;0.00;0.00;;;;;23.50;100.00;100704.78;5014875;28;60526;-84
2023/07/28 09:48:24;;;;;;;;;0.00;0.00;;;;;23.63;100.00;100708.69;4996928;28;69121;-82
2023/07/28 09:50:49;;;;;;;;;0.67;0.00;;;;;23.74;100.00;100706.38;5015587;28;53870;-84
2023/07/28 09:53:15;;;;;;;;;0.00;0.00;;;;;23.82;100.00;100697.09;4980680;28;45370;-85
2023/07/28 09:55:42;;;;;;;;;0.00;0.00;;;;;23.87;100.00;100695.94;5015237;28;58964;-83
2023/07/28 09:58:09;;;;;;;;;0.00;0.00;;;;;23.88;100.00;100694.97;4996334;28;46446;-84
2023/07/28 10:00:35;;;;;;;;;0.67;0.67;;;;;23.92;100.00;100698.41;5001171;28;46274;-82
2023/07/28 10:03:03;;;;;;;;;0.00;0.00;;;;;23.93;100.00;100690.25;4997316;28;45460;-84
2023/07/28 10:05:29;;;;;;;;;0.00;0.00;;;;;23.95;100.00;100684.75;5018175;28;45406;-84
2023/07/28 10:07:54;;;;;;;;;0.00;0.00;;;;;23.98;100.00;100698.13;5000577;28;46205;-83
2023/07/28 10:10:20;;;;;;;;;0.00;0.00;;;;;24.01;100.00;100684.47;5018949;28;45345;-83
2023/07/28 10:12:48;;;;;;;;;0.33;0.33;;;;;24.09;100.00;100689.53;5014164;28;65996;-84
2023/07/28 10:15:15;;;;;;;;;1.67;0.67;;;;;24.27;100.00;100691.31;5018122;28;46021;-83
2023/07/28 10:17:44;;;;;;;;;1.00;1.00;;;;;24.51;100.00;100694.72;5018543;28;45974;-83
2023/07/28 10:20:34;;;;;;;;;0.00;0.00;;;;;24.82;100.00;100691.34;5000332;28;45355;-83
2023/07/28 10:23:26;;;;;;;;;0.00;0.00;;;;;24.98;100.00;100675.22;5018765;28;45464;-83
2023/07/28 10:26:03;;;;;;;;;0.00;0.00;;;;;25.06;100.00;100671.22;4997563;28;45395;-83
2023/07/28 10:28:32;;;;;;;;;0.67;0.00;;;;;25.15;100.00;100677.13;4990102;28;46612;-83
2023/07/28 10:30:58;;;;;;;;;1.00;1.00;;;;;25.15;100.00;100672.59;5000888;28;45237;-83
2023/07/28 10:33:33;;;;;;;;;2.00;0.33;;;;;25.13;100.00;100662.78;5000836;28;45550;-83
2023/07/28 10:36:23;;;;;;;;;1.33;1.33;;;;;25.24;100.00;100660.41;5007141;28;45561;-83
2023/07/28 10:39:11;;;;;;;;;0.00;0.00;;;;;25.41;100.00;100660.41;5017626;28;47601;-83
2023/07/28 10:41:37;;;;;;;;;1.00;1.00;;;;;25.54;100.00;100649.78;5000260;28;46864;-84
2023/07/28 10:44:03;;;;;;;;;0.33;0.33;;;;;25.57;100.00;100638.81;5000109;28;45751;-84
2023/07/28 10:46:28;;;;;;;;;1.00;1.00;;;;;25.72;100.00;100646.06;5018454;28;45635;-83
2023/07/28 10:48:54;;;;;;;;;0.00;0.00;;;;;25.81;100.00;100634.78;4983730;28;47602;-82
2023/07/28 10:51:33;;;;;;;;;0.00;0.00;;;;;25.90;100.00;100637.94;5017208;28;60925;-84
2023/07/28 10:54:00;;;;;;;;;0.00;0.00;;;;;25.91;100.00;100639.69;5003182;28;45388;-83
2023/07/28 10:56:26;;;;;;;;;0.00;0.00;;;;;25.86;100.00;100639.94;5019666;28;45298;-83
2023/07/28 10:59:03;;;;;;;;;1.00;0.00;;;;;25.79;100.00;100638.56;5017934;28;47791;-85
2023/07/28 11:01:36;;;;;;;;;0.00;0.00;;;;;25.74;100.00;100636.09;4983237;28;45296;-83
2023/07/28 11:04:19;;;;;;;;;0.00;0.00;;;;;25.77;100.00;100638.63;4996496;28;45233;-84
2023/07/28 11:06:49;;;;;;;;;0.00;0.00;;;;;25.75;100.00;100642.38;5005767;28;45362;-83
2023/07/28 11:09:19;;;;;;;;;1.00;1.00;;;;;25.67;100.00;100652.69;5016557;28;45433;-83
2023/07/28 11:11:45;;;;;;;;;0.00;0.00;;;;;25.61;100.00;100649.34;4988718;28;46506;-84
2023/07/28 11:14:10;;;;;;;;;0.33;0.33;;;;;25.68;100.00;100649.94;5013122;28;45326;-83
2023/07/28 11:16:38;;;;;;;;;0.00;0.00;;;;;25.81;100.00;100639.31;4999120;28;57381;-83